KAOH/AOH METAR and TAF weather

Enter ICAO airport designator
Station Type Date Time Source
KAOH METAR 2019/08/22 08:53 UTC NOAA

KAOH 220853Z AUTO 28006KT 10SM OVC013 23/21 A2995 RMK AO2 SLP135 T02280211 55005


Station Type Date Time Source
KAOH Decoded METAR 2019/08/22 08:53 UTC NOAA

Station name not available
Aug 22, 2019 - 04:53 AM EDT / 2019.08.22 0853 UTC
Wind: from the W (280 degrees) at 7 MPH (6 KT):0
Visibility: 10 mile(s):0
Sky conditions: overcast
Temperature: 73.0 F (22.8 C)
Dew Point: 70.0 F (21.1 C)
Relative Humidity: 90%
Pressure (altimeter): 29.95 in. Hg (1014 hPa)
Pressure tendency: 0.01 inches (0.5 hPa) lower than three hours ago
ob: KAOH 220853Z AUTO 28006KT 10SM OVC013 23/21 A2995 RMK AO2 SLP135 T02280211 55005
cycle: 9

Station Type Date Time Source
KAOH TAF UTC NOAA

Error!

Example: see airport list